createdAt,value
2023-05-10T00:00:04.000Z,0
2023-05-10T00:01:08.000Z,0
2023-05-10T00:02:12.000Z,0
2023-05-10T00:03:16.000Z,0
2023-05-10T00:04:20.000Z,0
2023-05-10T00:05:24.000Z,0
2023-05-10T00:06:28.000Z,0
2023-05-10T00:07:33.000Z,0
2023-05-10T00:08:37.000Z,0
2023-05-10T00:09:41.000Z,0
2023-05-10T00:10:45.000Z,0
2023-05-10T00:11:49.000Z,0
2023-05-10T00:12:53.000Z,0
2023-05-10T00:13:57.000Z,0
2023-05-10T00:15:01.000Z,0
2023-05-10T00:16:06.000Z,0
2023-05-10T00:17:10.000Z,0
2023-05-10T00:18:14.000Z,0
2023-05-10T00:19:18.000Z,0
2023-05-10T00:20:22.000Z,0
2023-05-10T00:21:26.000Z,0
2023-05-10T00:22:30.000Z,0
2023-05-10T00:23:35.000Z,0
2023-05-10T00:24:39.000Z,0
2023-05-10T00:25:43.000Z,0
2023-05-10T00:26:47.000Z,0
2023-05-10T00:27:51.000Z,0
2023-05-10T00:28:55.000Z,0
2023-05-10T00:29:59.000Z,0
2023-05-10T00:31:03.000Z,0
2023-05-10T00:32:08.000Z,0
2023-05-10T00:33:12.000Z,0
2023-05-10T00:34:16.000Z,0
2023-05-10T00:35:20.000Z,0
2023-05-10T00:36:24.000Z,0
2023-05-10T00:37:28.000Z,0
2023-05-10T00:38:32.000Z,0
2023-05-10T00:39:37.000Z,0
2023-05-10T00:40:41.000Z,0
2023-05-10T00:41:45.000Z,0
2023-05-10T00:42:49.000Z,0
2023-05-10T00:43:53.000Z,0
2023-05-10T00:44:57.000Z,0
2023-05-10T00:46:02.000Z,0
2023-05-10T00:47:06.000Z,0
2023-05-10T00:48:10.000Z,0
2023-05-10T00:49:14.000Z,0
2023-05-10T00:50:18.000Z,0
2023-05-10T00:51:22.000Z,0
2023-05-10T00:52:26.000Z,0
2023-05-10T00:53:31.000Z,0
2023-05-10T00:54:35.000Z,0
2023-05-10T00:55:39.000Z,0
2023-05-10T00:56:43.000Z,0
2023-05-10T00:57:47.000Z,0
2023-05-10T00:58:51.000Z,0
2023-05-10T00:59:56.000Z,0
2023-05-10T01:01:00.000Z,0
2023-05-10T01:02:04.000Z,0
2023-05-10T01:03:08.000Z,0
2023-05-10T01:04:12.000Z,0
2023-05-10T01:05:16.000Z,0
2023-05-10T01:06:20.000Z,0
2023-05-10T01:07:24.000Z,0
2023-05-10T01:08:29.000Z,0
2023-05-10T01:09:33.000Z,0
2023-05-10T01:10:37.000Z,0
2023-05-10T01:11:41.000Z,0
2023-05-10T01:12:45.000Z,0
2023-05-10T01:13:49.000Z,0
2023-05-10T01:14:53.000Z,0
2023-05-10T01:15:57.000Z,0
2023-05-10T01:17:02.000Z,0
2023-05-10T01:18:06.000Z,0
2023-05-10T01:19:10.000Z,0
2023-05-10T01:20:14.000Z,0
2023-05-10T01:21:18.000Z,0
2023-05-10T01:22:22.000Z,0
2023-05-10T01:23:26.000Z,0
2023-05-10T01:24:31.000Z,0
2023-05-10T01:25:35.000Z,0
2023-05-10T01:26:39.000Z,0
2023-05-10T01:27:43.000Z,0
2023-05-10T01:28:47.000Z,0
2023-05-10T01:29:51.000Z,0
2023-05-10T01:30:55.000Z,0
2023-05-10T01:32:00.000Z,0
2023-05-10T01:33:04.000Z,0
2023-05-10T01:34:08.000Z,0
2023-05-10T01:35:12.000Z,0
2023-05-10T01:36:16.000Z,0
2023-05-10T01:37:20.000Z,0
2023-05-10T01:38:24.000Z,0
2023-05-10T01:39:28.000Z,0
2023-05-10T01:40:33.000Z,0
2023-05-10T01:41:37.000Z,0
2023-05-10T01:42:41.000Z,0
2023-05-10T01:43:45.000Z,0
2023-05-10T01:44:49.000Z,0
2023-05-10T01:45:53.000Z,0
2023-05-10T01:46:57.000Z,0
2023-05-10T01:48:01.000Z,0
2023-05-10T01:49:06.000Z,0
2023-05-10T01:50:10.000Z,0
2023-05-10T01:51:14.000Z,0
2023-05-10T01:52:18.000Z,0
2023-05-10T01:53:22.000Z,0
2023-05-10T01:54:26.000Z,0
2023-05-10T01:55:30.000Z,0
2023-05-10T01:56:35.000Z,0
2023-05-10T01:57:39.000Z,0
2023-05-10T01:58:43.000Z,0
2023-05-10T01:59:47.000Z,0
2023-05-10T02:00:51.000Z,0
2023-05-10T02:01:55.000Z,0
2023-05-10T02:02:59.000Z,0
2023-05-10T02:04:04.000Z,0
2023-05-10T02:05:08.000Z,0
2023-05-10T02:06:12.000Z,0
2023-05-10T02:07:16.000Z,0
2023-05-10T02:08:20.000Z,0
2023-05-10T02:09:24.000Z,0
2023-05-10T02:10:28.000Z,0
2023-05-10T02:11:33.000Z,0
2023-05-10T02:12:37.000Z,0
2023-05-10T02:13:41.000Z,0
2023-05-10T02:14:45.000Z,0
2023-05-10T02:15:49.000Z,0
2023-05-10T02:16:53.000Z,0
2023-05-10T02:17:57.000Z,0
2023-05-10T02:19:02.000Z,0
2023-05-10T02:20:06.000Z,0
2023-05-10T02:21:10.000Z,0
2023-05-10T02:22:14.000Z,0
2023-05-10T02:23:18.000Z,0
2023-05-10T02:24:22.000Z,0
2023-05-10T02:25:26.000Z,0
2023-05-10T02:26:31.000Z,0
2023-05-10T02:27:35.000Z,0
2023-05-10T02:28:39.000Z,0
2023-05-10T02:29:43.000Z,0
2023-05-10T02:30:47.000Z,0
2023-05-10T02:31:51.000Z,0
2023-05-10T02:32:56.000Z,0
2023-05-10T02:34:00.000Z,0
2023-05-10T02:35:04.000Z,0
2023-05-10T02:36:08.000Z,0
2023-05-10T02:37:12.000Z,0
2023-05-10T02:38:16.000Z,0
2023-05-10T02:39:21.000Z,0
2023-05-10T02:40:25.000Z,0
2023-05-10T02:41:29.000Z,0
2023-05-10T02:42:33.000Z,0
2023-05-10T02:43:37.000Z,0
2023-05-10T02:44:41.000Z,0
2023-05-10T02:45:46.000Z,0
2023-05-10T02:46:50.000Z,0
2023-05-10T02:47:54.000Z,0
2023-05-10T02:48:58.000Z,0
2023-05-10T02:50:02.000Z,0
2023-05-10T02:51:06.000Z,0
2023-05-10T02:52:10.000Z,0
2023-05-10T02:53:15.000Z,0
2023-05-10T02:54:19.000Z,0
2023-05-10T02:55:23.000Z,0
2023-05-10T02:56:27.000Z,0
2023-05-10T02:57:31.000Z,0
2023-05-10T02:58:35.000Z,0
2023-05-10T02:59:39.000Z,0
2023-05-10T03:00:44.000Z,0
2023-05-10T03:01:48.000Z,0
2023-05-10T03:02:52.000Z,0
2023-05-10T03:03:56.000Z,0
2023-05-10T03:05:00.000Z,0
2023-05-10T03:06:04.000Z,0
2023-05-10T03:07:08.000Z,0
2023-05-10T03:08:12.000Z,0
2023-05-10T03:09:17.000Z,1
2023-05-10T03:10:21.000Z,1
2023-05-10T03:11:25.000Z,1
2023-05-10T03:12:29.000Z,1
2023-05-10T03:13:33.000Z,2
2023-05-10T03:14:37.000Z,2
2023-05-10T03:15:42.000Z,2
2023-05-10T03:16:46.000Z,2
2023-05-10T03:17:50.000Z,3
2023-05-10T03:18:54.000Z,3
2023-05-10T03:19:58.000Z,3
2023-05-10T03:21:02.000Z,4
2023-05-10T03:22:06.000Z,4
2023-05-10T03:23:11.000Z,4
2023-05-10T03:24:15.000Z,5
2023-05-10T03:25:19.000Z,5
2023-05-10T03:26:23.000Z,5
2023-05-10T03:27:27.000Z,6
2023-05-10T03:28:31.000Z,6
2023-05-10T03:29:35.000Z,6
2023-05-10T03:30:40.000Z,7
2023-05-10T03:31:44.000Z,7
2023-05-10T03:32:48.000Z,8
2023-05-10T03:33:52.000Z,9
2023-05-10T03:34:56.000Z,9
2023-05-10T03:36:00.000Z,10
2023-05-10T03:37:04.000Z,11
2023-05-10T03:38:08.000Z,12
2023-05-10T03:39:13.000Z,12
2023-05-10T03:40:17.000Z,13
2023-05-10T03:41:21.000Z,13
2023-05-10T03:42:25.000Z,13
2023-05-10T03:43:29.000Z,14
2023-05-10T03:44:33.000Z,15
2023-05-10T03:45:37.000Z,16
2023-05-10T03:46:42.000Z,17
2023-05-10T03:47:46.000Z,18
2023-05-10T03:48:50.000Z,19
2023-05-10T03:49:54.000Z,20
2023-05-10T03:50:58.000Z,21
2023-05-10T03:52:02.000Z,22
2023-05-10T03:53:06.000Z,24
2023-05-10T03:54:11.000Z,25
2023-05-10T03:55:15.000Z,26
2023-05-10T03:56:19.000Z,26
2023-05-10T03:57:23.000Z,29
2023-05-10T03:58:27.000Z,29
2023-05-10T03:59:31.000Z,30
2023-05-10T04:00:35.000Z,32
2023-05-10T04:01:40.000Z,33
2023-05-10T04:02:44.000Z,34
2023-05-10T04:03:48.000Z,36
2023-05-10T04:04:52.000Z,37
2023-05-10T04:05:56.000Z,39
2023-05-10T04:07:00.000Z,44
2023-05-10T04:08:04.000Z,46
2023-05-10T04:09:08.000Z,47
2023-05-10T04:10:13.000Z,47
2023-05-10T04:11:17.000Z,47
2023-05-10T04:12:21.000Z,47
2023-05-10T04:13:25.000Z,48
2023-05-10T04:14:29.000Z,49
2023-05-10T04:15:33.000Z,50
2023-05-10T04:16:37.000Z,50
2023-05-10T04:17:42.000Z,49
2023-05-10T04:18:46.000Z,48
2023-05-10T04:19:50.000Z,47
2023-05-10T04:20:54.000Z,47
2023-05-10T04:21:58.000Z,49
2023-05-10T04:23:02.000Z,50
2023-05-10T04:24:06.000Z,50
2023-05-10T04:25:10.000Z,51
2023-05-10T04:26:15.000Z,52
2023-05-10T04:27:19.000Z,54
2023-05-10T04:28:23.000Z,56
2023-05-10T04:29:27.000Z,55
2023-05-10T04:30:31.000Z,55
2023-05-10T04:31:35.000Z,56
2023-05-10T04:32:39.000Z,58
2023-05-10T04:33:44.000Z,58
2023-05-10T04:34:48.000Z,59
2023-05-10T04:35:52.000Z,59
2023-05-10T04:36:56.000Z,60
2023-05-10T04:38:00.000Z,62
2023-05-10T04:39:04.000Z,63
2023-05-10T04:40:09.000Z,64
2023-05-10T04:41:13.000Z,66
2023-05-10T04:42:17.000Z,67
2023-05-10T04:43:21.000Z,69
2023-05-10T04:44:25.000Z,70
2023-05-10T04:45:29.000Z,71
2023-05-10T04:46:34.000Z,75
2023-05-10T04:47:38.000Z,76
2023-05-10T04:48:42.000Z,76
2023-05-10T04:49:46.000Z,77
2023-05-10T04:50:50.000Z,78
2023-05-10T04:51:54.000Z,79
2023-05-10T04:52:59.000Z,81
2023-05-10T04:54:03.000Z,82
2023-05-10T04:55:07.000Z,83
2023-05-10T04:56:11.000Z,84
2023-05-10T04:57:15.000Z,85
2023-05-10T04:58:19.000Z,86
2023-05-10T04:59:23.000Z,88
2023-05-10T05:00:28.000Z,91
2023-05-10T05:01:32.000Z,93
2023-05-10T05:02:36.000Z,94
2023-05-10T05:03:40.000Z,96
2023-05-10T05:04:44.000Z,96
2023-05-10T05:05:48.000Z,96
2023-05-10T05:06:52.000Z,98
2023-05-10T05:07:56.000Z,99
2023-05-10T05:09:01.000Z,99
2023-05-10T05:10:05.000Z,101
2023-05-10T05:11:09.000Z,102
2023-05-10T05:12:13.000Z,104
2023-05-10T05:13:17.000Z,106
2023-05-10T05:14:21.000Z,108
2023-05-10T05:15:26.000Z,109
2023-05-10T05:16:30.000Z,112
2023-05-10T05:17:34.000Z,114
2023-05-10T05:18:38.000Z,115
2023-05-10T05:19:42.000Z,117
2023-05-10T05:20:46.000Z,117
2023-05-10T05:21:50.000Z,117
2023-05-10T05:22:55.000Z,118
2023-05-10T05:23:59.000Z,117
2023-05-10T05:25:03.000Z,117
2023-05-10T05:26:07.000Z,118
2023-05-10T05:27:11.000Z,117
2023-05-10T05:28:15.000Z,118
2023-05-10T05:29:19.000Z,117
2023-05-10T05:30:23.000Z,117
2023-05-10T05:31:28.000Z,117
2023-05-10T05:32:32.000Z,116
2023-05-10T05:33:36.000Z,116
2023-05-10T05:34:40.000Z,116
2023-05-10T05:35:44.000Z,116
2023-05-10T05:36:48.000Z,116
2023-05-10T05:37:52.000Z,117
2023-05-10T05:38:56.000Z,114
2023-05-10T05:40:01.000Z,114
2023-05-10T05:41:05.000Z,113
2023-05-10T05:42:09.000Z,113
2023-05-10T05:43:13.000Z,113
2023-05-10T05:44:17.000Z,112
2023-05-10T05:45:21.000Z,112
2023-05-10T05:46:25.000Z,111
2023-05-10T05:47:30.000Z,111
2023-05-10T05:48:34.000Z,112
2023-05-10T05:49:38.000Z,111
2023-05-10T05:50:42.000Z,112
2023-05-10T05:51:46.000Z,111
2023-05-10T05:52:50.000Z,110
2023-05-10T05:53:54.000Z,109
2023-05-10T05:54:58.000Z,110
2023-05-10T05:56:03.000Z,110
2023-05-10T05:57:07.000Z,113
2023-05-10T05:58:11.000Z,113
2023-05-10T05:59:15.000Z,115
2023-05-10T06:00:19.000Z,119
2023-05-10T06:01:23.000Z,121
2023-05-10T06:02:27.000Z,124
2023-05-10T06:03:31.000Z,127
2023-05-10T06:04:36.000Z,130
2023-05-10T06:05:40.000Z,133
2023-05-10T06:06:44.000Z,136
2023-05-10T06:07:48.000Z,139
2023-05-10T06:08:52.000Z,142
2023-05-10T06:09:56.000Z,144
2023-05-10T06:11:00.000Z,147
2023-05-10T06:12:04.000Z,149
2023-05-10T06:13:09.000Z,152
2023-05-10T06:14:13.000Z,154
2023-05-10T06:15:17.000Z,156
2023-05-10T06:16:21.000Z,159
2023-05-10T06:17:25.000Z,161
2023-05-10T06:18:29.000Z,162
2023-05-10T06:19:33.000Z,164
2023-05-10T06:20:38.000Z,166
2023-05-10T06:21:42.000Z,168
2023-05-10T06:22:46.000Z,169
2023-05-10T06:23:50.000Z,170
2023-05-10T06:24:54.000Z,171
2023-05-10T06:25:58.000Z,173
2023-05-10T06:27:02.000Z,174
2023-05-10T06:28:06.000Z,176
2023-05-10T06:29:11.000Z,178
2023-05-10T06:30:15.000Z,180
2023-05-10T06:31:19.000Z,181
2023-05-10T06:32:23.000Z,183
2023-05-10T06:33:27.000Z,185
2023-05-10T06:34:31.000Z,186
2023-05-10T06:35:36.000Z,187
2023-05-10T06:36:40.000Z,188
2023-05-10T06:37:44.000Z,189
2023-05-10T06:38:48.000Z,189
2023-05-10T06:39:52.000Z,189
2023-05-10T06:40:56.000Z,189
2023-05-10T06:42:01.000Z,190
2023-05-10T06:43:05.000Z,191
2023-05-10T06:44:09.000Z,193
2023-05-10T06:45:13.000Z,196
2023-05-10T06:46:17.000Z,199
2023-05-10T06:47:21.000Z,198
2023-05-10T06:48:26.000Z,198
2023-05-10T06:49:30.000Z,197
2023-05-10T06:50:34.000Z,196
2023-05-10T06:51:38.000Z,203
2023-05-10T06:52:42.000Z,200
2023-05-10T06:53:46.000Z,192
2023-05-10T06:54:51.000Z,191
2023-05-10T06:55:55.000Z,188
2023-05-10T06:56:59.000Z,187
2023-05-10T06:58:03.000Z,184
2023-05-10T06:59:07.000Z,181
2023-05-10T07:00:11.000Z,182
2023-05-10T07:01:15.000Z,178
2023-05-10T07:02:20.000Z,176
2023-05-10T07:03:24.000Z,173
2023-05-10T07:04:28.000Z,169
2023-05-10T07:05:32.000Z,169
2023-05-10T07:06:36.000Z,165
2023-05-10T07:07:40.000Z,164
2023-05-10T07:08:44.000Z,161
2023-05-10T07:09:49.000Z,159
2023-05-10T07:10:53.000Z,158
2023-05-10T07:11:57.000Z,159
2023-05-10T07:13:01.000Z,158
2023-05-10T07:14:05.000Z,159
2023-05-10T07:15:09.000Z,159
2023-05-10T07:16:13.000Z,162
2023-05-10T07:17:18.000Z,163
2023-05-10T07:18:22.000Z,163
2023-05-10T07:19:26.000Z,164
2023-05-10T07:20:30.000Z,167
2023-05-10T07:21:34.000Z,170
2023-05-10T07:22:38.000Z,172
2023-05-10T07:23:42.000Z,174
2023-05-10T07:24:46.000Z,179
2023-05-10T07:25:51.000Z,180
2023-05-10T07:26:55.000Z,184
2023-05-10T07:27:59.000Z,188
2023-05-10T07:29:03.000Z,190
2023-05-10T07:30:07.000Z,194
2023-05-10T07:31:11.000Z,199
2023-05-10T07:32:15.000Z,206
2023-05-10T07:33:19.000Z,210
2023-05-10T07:34:24.000Z,216
2023-05-10T07:35:28.000Z,221
2023-05-10T07:36:32.000Z,228
2023-05-10T07:37:36.000Z,235
2023-05-10T07:38:40.000Z,242
2023-05-10T07:39:44.000Z,247
2023-05-10T07:40:48.000Z,254
2023-05-10T07:41:53.000Z,263
2023-05-10T07:42:57.000Z,274
2023-05-10T07:44:01.000Z,287
2023-05-10T07:45:05.000Z,295
2023-05-10T07:46:09.000Z,305
2023-05-10T07:47:13.000Z,317
2023-05-10T07:48:17.000Z,330
2023-05-10T07:49:22.000Z,335
2023-05-10T07:50:26.000Z,339
2023-05-10T07:51:30.000Z,339
2023-05-10T07:52:34.000Z,339
2023-05-10T07:53:38.000Z,344
2023-05-10T07:54:42.000Z,353
2023-05-10T07:55:47.000Z,356
2023-05-10T07:56:51.000Z,363
2023-05-10T07:57:55.000Z,377
2023-05-10T07:58:59.000Z,386
2023-05-10T08:00:03.000Z,386
2023-05-10T08:01:07.000Z,388
2023-05-10T08:02:11.000Z,363
2023-05-10T08:03:15.000Z,337
2023-05-10T08:04:20.000Z,315
2023-05-10T08:05:24.000Z,289
2023-05-10T08:06:28.000Z,267
2023-05-10T08:07:32.000Z,251
2023-05-10T08:08:36.000Z,235
2023-05-10T08:09:40.000Z,226
2023-05-10T08:10:44.000Z,223
2023-05-10T08:11:48.000Z,217
2023-05-10T08:12:53.000Z,210
2023-05-10T08:13:57.000Z,207
2023-05-10T08:15:01.000Z,208
2023-05-10T08:16:05.000Z,213
2023-05-10T08:17:09.000Z,223
2023-05-10T08:18:13.000Z,239
2023-05-10T08:19:17.000Z,260
2023-05-10T08:20:22.000Z,271
2023-05-10T08:21:26.000Z,261
2023-05-10T08:22:30.000Z,265
2023-05-10T08:23:34.000Z,262
2023-05-10T08:24:38.000Z,250
2023-05-10T08:25:42.000Z,237
2023-05-10T08:26:46.000Z,226
2023-05-10T08:27:50.000Z,217
2023-05-10T08:28:55.000Z,209
2023-05-10T08:29:59.000Z,202
2023-05-10T08:31:03.000Z,191
2023-05-10T08:32:07.000Z,181
2023-05-10T08:33:11.000Z,166
2023-05-10T08:34:15.000Z,153
2023-05-10T08:35:20.000Z,147
2023-05-10T08:36:24.000Z,148
2023-05-10T08:37:28.000Z,154
2023-05-10T08:38:32.000Z,160
2023-05-10T08:39:36.000Z,163
2023-05-10T08:40:40.000Z,173
2023-05-10T08:41:45.000Z,191
2023-05-10T08:42:49.000Z,205
2023-05-10T08:43:53.000Z,211
2023-05-10T08:44:57.000Z,213
2023-05-10T08:46:01.000Z,216
2023-05-10T08:47:05.000Z,219
2023-05-10T08:48:09.000Z,226
2023-05-10T08:49:14.000Z,240
2023-05-10T08:50:18.000Z,253
2023-05-10T08:51:22.000Z,258
2023-05-10T08:52:26.000Z,248
2023-05-10T08:53:30.000Z,240
2023-05-10T08:54:34.000Z,237
2023-05-10T08:55:39.000Z,232
2023-05-10T08:56:43.000Z,227
2023-05-10T08:57:47.000Z,230
2023-05-10T08:58:51.000Z,229
2023-05-10T08:59:55.000Z,222
2023-05-10T09:00:59.000Z,210
2023-05-10T09:02:03.000Z,194
2023-05-10T09:03:08.000Z,176
2023-05-10T09:04:12.000Z,159
2023-05-10T09:05:16.000Z,144
2023-05-10T09:06:20.000Z,133
2023-05-10T09:07:24.000Z,125
2023-05-10T09:08:28.000Z,119
2023-05-10T09:09:32.000Z,116
2023-05-10T09:10:36.000Z,109
2023-05-10T09:11:41.000Z,100
2023-05-10T09:12:45.000Z,86
2023-05-10T09:13:49.000Z,75
2023-05-10T09:14:53.000Z,67
2023-05-10T09:15:57.000Z,62
2023-05-10T09:17:01.000Z,59
2023-05-10T09:18:06.000Z,58
2023-05-10T09:19:10.000Z,56
2023-05-10T09:20:14.000Z,54
2023-05-10T09:21:18.000Z,52
2023-05-10T09:22:22.000Z,51
2023-05-10T09:23:26.000Z,51
2023-05-10T09:24:30.000Z,52
2023-05-10T09:25:34.000Z,55
2023-05-10T09:26:39.000Z,55
2023-05-10T09:27:43.000Z,54
2023-05-10T09:28:47.000Z,55
2023-05-10T09:29:51.000Z,58
2023-05-10T09:30:55.000Z,63
2023-05-10T09:31:59.000Z,67
2023-05-10T09:33:03.000Z,70
2023-05-10T09:34:08.000Z,73
2023-05-10T09:35:12.000Z,75
2023-05-10T09:36:16.000Z,74
2023-05-10T09:37:20.000Z,76
2023-05-10T09:38:24.000Z,79
2023-05-10T09:39:28.000Z,80
2023-05-10T09:40:32.000Z,80
2023-05-10T09:41:37.000Z,81
2023-05-10T09:42:41.000Z,84
2023-05-10T09:43:45.000Z,88
2023-05-10T09:44:49.000Z,91
2023-05-10T09:45:53.000Z,98
2023-05-10T09:46:57.000Z,102
2023-05-10T09:48:01.000Z,102
2023-05-10T09:49:06.000Z,102
2023-05-10T09:50:10.000Z,102
2023-05-10T09:51:14.000Z,102
2023-05-10T09:52:18.000Z,103
2023-05-10T09:53:22.000Z,104
2023-05-10T09:54:26.000Z,104
2023-05-10T09:55:30.000Z,102
2023-05-10T09:56:35.000Z,99
2023-05-10T09:57:39.000Z,95
2023-05-10T09:58:43.000Z,95
2023-05-10T09:59:47.000Z,98
2023-05-10T10:00:51.000Z,103
2023-05-10T10:01:55.000Z,109
2023-05-10T10:02:59.000Z,112
2023-05-10T10:04:04.000Z,113
2023-05-10T10:05:08.000Z,113
2023-05-10T10:06:12.000Z,113
2023-05-10T10:07:16.000Z,114
2023-05-10T10:08:20.000Z,117
2023-05-10T10:09:24.000Z,119
2023-05-10T10:10:28.000Z,123
2023-05-10T10:11:32.000Z,126
2023-05-10T10:12:37.000Z,127
2023-05-10T10:13:41.000Z,128
2023-05-10T10:14:45.000Z,131
2023-05-10T10:15:49.000Z,135
2023-05-10T10:16:53.000Z,138
2023-05-10T10:17:57.000Z,142
2023-05-10T10:19:01.000Z,146
2023-05-10T10:20:05.000Z,152
2023-05-10T10:21:10.000Z,160
2023-05-10T10:22:14.000Z,171
2023-05-10T10:23:18.000Z,183
2023-05-10T10:24:22.000Z,191
2023-05-10T10:25:26.000Z,196
2023-05-10T10:26:30.000Z,194
2023-05-10T10:27:34.000Z,189
2023-05-10T10:28:38.000Z,184
2023-05-10T10:29:43.000Z,182
2023-05-10T10:30:47.000Z,184
2023-05-10T10:31:51.000Z,187
2023-05-10T10:32:55.000Z,190
2023-05-10T10:33:59.000Z,189
2023-05-10T10:35:03.000Z,187
2023-05-10T10:36:08.000Z,185
2023-05-10T10:37:12.000Z,189
2023-05-10T10:38:16.000Z,198
2023-05-10T10:39:20.000Z,206
2023-05-10T10:40:24.000Z,205
2023-05-10T10:41:28.000Z,193
2023-05-10T10:42:33.000Z,172
2023-05-10T10:43:37.000Z,152
2023-05-10T10:44:41.000Z,137
2023-05-10T10:45:45.000Z,127
2023-05-10T10:46:49.000Z,125
2023-05-10T10:47:53.000Z,128
2023-05-10T10:48:58.000Z,134
2023-05-10T10:50:02.000Z,144
2023-05-10T10:51:06.000Z,155
2023-05-10T10:52:10.000Z,163
2023-05-10T10:53:14.000Z,169
2023-05-10T10:54:19.000Z,174
2023-05-10T10:55:23.000Z,182
2023-05-10T10:56:27.000Z,187
2023-05-10T10:57:31.000Z,196
2023-05-10T10:58:35.000Z,209
2023-05-10T10:59:39.000Z,225
2023-05-10T11:00:43.000Z,238
2023-05-10T11:01:48.000Z,244
2023-05-10T11:02:52.000Z,243
2023-05-10T11:03:56.000Z,233
2023-05-10T11:05:00.000Z,212
2023-05-10T11:06:04.000Z,195
2023-05-10T11:07:08.000Z,181
2023-05-10T11:08:13.000Z,169
2023-05-10T11:09:17.000Z,160
2023-05-10T11:10:21.000Z,152
2023-05-10T11:11:25.000Z,146
2023-05-10T11:12:29.000Z,143
2023-05-10T11:13:33.000Z,140
2023-05-10T11:14:37.000Z,139
2023-05-10T11:15:41.000Z,141
2023-05-10T11:16:46.000Z,143
2023-05-10T11:17:50.000Z,148
2023-05-10T11:18:54.000Z,153
2023-05-10T11:19:58.000Z,159
2023-05-10T11:21:02.000Z,162
2023-05-10T11:22:06.000Z,164
2023-05-10T11:23:10.000Z,170
2023-05-10T11:24:15.000Z,168
2023-05-10T11:25:19.000Z,166
2023-05-10T11:26:23.000Z,168
2023-05-10T11:27:27.000Z,167
2023-05-10T11:28:31.000Z,168
2023-05-10T11:29:35.000Z,165
2023-05-10T11:30:39.000Z,169
2023-05-10T11:31:43.000Z,168
2023-05-10T11:32:48.000Z,163
2023-05-10T11:33:52.000Z,158
2023-05-10T11:34:56.000Z,157
2023-05-10T11:36:00.000Z,154
2023-05-10T11:37:04.000Z,149
2023-05-10T11:38:08.000Z,145
2023-05-10T11:39:12.000Z,144
2023-05-10T11:40:17.000Z,142
2023-05-10T11:41:21.000Z,141
2023-05-10T11:42:25.000Z,142
2023-05-10T11:43:29.000Z,147
2023-05-10T11:44:33.000Z,153
2023-05-10T11:45:37.000Z,158
2023-05-10T11:46:41.000Z,161
2023-05-10T11:47:45.000Z,160
2023-05-10T11:48:50.000Z,158
2023-05-10T11:49:54.000Z,158
2023-05-10T11:50:58.000Z,161
2023-05-10T11:52:02.000Z,163
2023-05-10T11:53:06.000Z,171
2023-05-10T11:54:10.000Z,177
2023-05-10T11:55:15.000Z,183
2023-05-10T11:56:19.000Z,187
2023-05-10T11:57:23.000Z,187
2023-05-10T11:58:27.000Z,187
2023-05-10T11:59:31.000Z,187
2023-05-10T12:00:35.000Z,186
2023-05-10T12:01:39.000Z,185
2023-05-10T12:02:43.000Z,186
2023-05-10T12:03:48.000Z,184
2023-05-10T12:04:52.000Z,182
2023-05-10T12:05:56.000Z,177
2023-05-10T12:07:00.000Z,181
2023-05-10T12:08:04.000Z,187
2023-05-10T12:09:08.000Z,192
2023-05-10T12:10:12.000Z,194
2023-05-10T12:11:17.000Z,195
2023-05-10T12:12:21.000Z,196
2023-05-10T12:13:25.000Z,203
2023-05-10T12:14:29.000Z,205
2023-05-10T12:15:33.000Z,204
2023-05-10T12:16:37.000Z,206
2023-05-10T12:17:41.000Z,206
2023-05-10T12:18:45.000Z,205
2023-05-10T12:19:50.000Z,206
2023-05-10T12:20:54.000Z,209
2023-05-10T12:21:58.000Z,210
2023-05-10T12:23:02.000Z,207
2023-05-10T12:24:06.000Z,206
2023-05-10T12:25:10.000Z,201
2023-05-10T12:26:15.000Z,202
2023-05-10T12:27:19.000Z,212
2023-05-10T12:28:23.000Z,218
2023-05-10T12:29:27.000Z,221
2023-05-10T12:30:31.000Z,226
2023-05-10T12:31:35.000Z,231
2023-05-10T12:32:39.000Z,236
2023-05-10T12:33:44.000Z,241
2023-05-10T12:34:48.000Z,246
2023-05-10T12:35:52.000Z,249
2023-05-10T12:36:56.000Z,251
2023-05-10T12:38:00.000Z,253
2023-05-10T12:39:04.000Z,253
2023-05-10T12:40:08.000Z,251
2023-05-10T12:41:12.000Z,251
2023-05-10T12:42:17.000Z,254
2023-05-10T12:43:21.000Z,254
2023-05-10T12:44:25.000Z,253
2023-05-10T12:45:29.000Z,251
2023-05-10T12:46:33.000Z,248
2023-05-10T12:47:37.000Z,244
2023-05-10T12:48:41.000Z,241
2023-05-10T12:49:45.000Z,239
2023-05-10T12:50:50.000Z,238
2023-05-10T12:51:54.000Z,238
2023-05-10T12:52:58.000Z,239
2023-05-10T12:54:02.000Z,239
2023-05-10T12:55:06.000Z,242
2023-05-10T12:56:10.000Z,244
2023-05-10T12:57:14.000Z,244
2023-05-10T12:58:19.000Z,244
2023-05-10T12:59:23.000Z,244
2023-05-10T13:00:27.000Z,246
2023-05-10T13:01:31.000Z,252
2023-05-10T13:02:35.000Z,253
2023-05-10T13:03:39.000Z,248
2023-05-10T13:04:43.000Z,253
2023-05-10T13:05:48.000Z,257
2023-05-10T13:06:52.000Z,260
2023-05-10T13:07:56.000Z,262
2023-05-10T13:09:00.000Z,265
2023-05-10T13:10:04.000Z,266
2023-05-10T13:11:08.000Z,268
2023-05-10T13:12:12.000Z,268
2023-05-10T13:13:17.000Z,272
2023-05-10T13:14:21.000Z,271
2023-05-10T13:15:25.000Z,270
2023-05-10T13:16:29.000Z,269
2023-05-10T13:17:33.000Z,267
2023-05-10T13:18:37.000Z,264
2023-05-10T13:19:42.000Z,262
2023-05-10T13:20:46.000Z,258
2023-05-10T13:21:50.000Z,257
2023-05-10T13:22:54.000Z,258
2023-05-10T13:23:58.000Z,259
2023-05-10T13:25:02.000Z,262
2023-05-10T13:26:07.000Z,264
2023-05-10T13:27:11.000Z,265
2023-05-10T13:28:15.000Z,264
2023-05-10T13:29:19.000Z,262
2023-05-10T13:30:23.000Z,261
2023-05-10T13:31:27.000Z,260
2023-05-10T13:32:31.000Z,259
2023-05-10T13:33:36.000Z,258
2023-05-10T13:34:40.000Z,257
2023-05-10T13:35:44.000Z,255
2023-05-10T13:36:48.000Z,255
2023-05-10T13:37:52.000Z,256
2023-05-10T13:38:56.000Z,260
2023-05-10T13:40:00.000Z,263
2023-05-10T13:41:05.000Z,268
2023-05-10T13:42:09.000Z,271
2023-05-10T13:43:13.000Z,271
2023-05-10T13:44:17.000Z,278
2023-05-10T13:45:21.000Z,286
2023-05-10T13:46:25.000Z,290
2023-05-10T13:47:29.000Z,284
2023-05-10T13:48:34.000Z,282
2023-05-10T13:49:38.000Z,284
2023-05-10T13:50:42.000Z,283
2023-05-10T13:51:46.000Z,278
2023-05-10T13:52:50.000Z,273
2023-05-10T13:53:54.000Z,270
2023-05-10T13:54:58.000Z,263
2023-05-10T13:56:03.000Z,250
2023-05-10T13:57:07.000Z,239
2023-05-10T13:58:11.000Z,237
2023-05-10T13:59:15.000Z,234
2023-05-10T14:00:19.000Z,228
2023-05-10T14:01:23.000Z,230
2023-05-10T14:02:27.000Z,231
2023-05-10T14:03:32.000Z,227
2023-05-10T14:04:36.000Z,221
2023-05-10T14:05:40.000Z,216
2023-05-10T14:06:44.000Z,215
2023-05-10T14:07:48.000Z,218
2023-05-10T14:08:52.000Z,220
2023-05-10T14:09:56.000Z,220
2023-05-10T14:11:00.000Z,218
2023-05-10T14:12:05.000Z,217
2023-05-10T14:13:09.000Z,215
2023-05-10T14:14:13.000Z,214
2023-05-10T14:15:17.000Z,211
2023-05-10T14:16:21.000Z,210
2023-05-10T14:17:25.000Z,209
2023-05-10T14:18:30.000Z,209
2023-05-10T14:19:34.000Z,212
2023-05-10T14:20:38.000Z,214
2023-05-10T14:21:42.000Z,216
2023-05-10T14:22:46.000Z,217
2023-05-10T14:23:50.000Z,217
2023-05-10T14:24:54.000Z,218
2023-05-10T14:25:58.000Z,217
2023-05-10T14:27:03.000Z,215
2023-05-10T14:28:07.000Z,212
2023-05-10T14:29:11.000Z,212
2023-05-10T14:30:15.000Z,212
2023-05-10T14:31:19.000Z,210
2023-05-10T14:32:23.000Z,203
2023-05-10T14:33:27.000Z,198
2023-05-10T14:34:31.000Z,195
2023-05-10T14:35:36.000Z,190
2023-05-10T14:36:40.000Z,192
2023-05-10T14:37:44.000Z,194
2023-05-10T14:38:48.000Z,195
2023-05-10T14:39:52.000Z,196
2023-05-10T14:40:56.000Z,197
2023-05-10T14:42:00.000Z,197
2023-05-10T14:43:05.000Z,195
2023-05-10T14:44:09.000Z,196
2023-05-10T14:45:13.000Z,196
2023-05-10T14:46:17.000Z,198
2023-05-10T14:47:21.000Z,202
2023-05-10T14:48:25.000Z,202
2023-05-10T14:49:30.000Z,206
2023-05-10T14:50:34.000Z,209
2023-05-10T14:51:38.000Z,213
2023-05-10T14:52:42.000Z,216
2023-05-10T14:53:46.000Z,219
2023-05-10T14:54:50.000Z,220
2023-05-10T14:55:55.000Z,221
2023-05-10T14:56:59.000Z,221
2023-05-10T14:58:03.000Z,222
2023-05-10T14:59:07.000Z,221
2023-05-10T15:00:11.000Z,223
2023-05-10T15:01:15.000Z,222
2023-05-10T15:02:19.000Z,223